sensor_id;sensor_type;location;lat;lon;timestamp;temperature;humidity
10149;DHT22;5115;50.920;6.376;2024-03-06T00:02:05;8.00;99.90
10149;DHT22;5115;50.920;6.376;2024-03-06T00:04:31;8.00;99.90
10149;DHT22;5115;50.920;6.376;2024-03-06T00:06:56;7.90;99.90
10149;DHT22;5115;50.920;6.376;2024-03-06T00:09:23;7.90;99.90
10149;DHT22;5115;50.920;6.376;2024-03-06T00:11:49;7.90;99.90
10149;DHT22;5115;50.920;6.376;2024-03-06T00:14:16;7.80;99.90
10149;DHT22;5115;50.920;6.376;2024-03-06T00:16:42;7.70;99.90
10149;DHT22;5115;50.920;6.376;2024-03-06T00:19:08;7.60;99.90
10149;DHT22;5115;50.920;6.376;2024-03-06T00:21:34;7.60;99.90
10149;DHT22;5115;50.920;6.376;2024-03-06T00:24:00;7.50;99.90
10149;DHT22;5115;50.920;6.376;2024-03-06T00:26:25;7.50;99.90
10149;DHT22;5115;50.920;6.376;2024-03-06T00:28:51;7.50;99.90
10149;DHT22;5115;50.920;6.376;2024-03-06T00:31:16;7.50;99.90
10149;DHT22;5115;50.920;6.376;2024-03-06T00:33:42;7.60;99.90
10149;DHT22;5115;50.920;6.376;2024-03-06T00:36:07;7.60;99.90
10149;DHT22;5115;50.920;6.376;2024-03-06T00:38:33;7.70;99.90
10149;DHT22;5115;50.920;6.376;2024-03-06T00:40:58;7.70;99.90
10149;DHT22;5115;50.920;6.376;2024-03-06T00:43:24;7.70;99.90
10149;DHT22;5115;50.920;6.376;2024-03-06T00:45:50;7.70;99.90
10149;DHT22;5115;50.920;6.376;2024-03-06T00:48:15;7.70;99.90
10149;DHT22;5115;50.920;6.376;2024-03-06T00:50:41;7.70;99.90
10149;DHT22;5115;50.920;6.376;2024-03-06T00:53:07;7.70;99.90
10149;DHT22;5115;50.920;6.376;2024-03-06T00:55:32;7.60;99.90
10149;DHT22;5115;50.920;6.376;2024-03-06T00:57:58;7.60;99.90
10149;DHT22;5115;50.920;6.376;2024-03-06T01:00:23;7.60;99.90
10149;DHT22;5115;50.920;6.376;2024-03-06T01:02:49;7.50;99.90
10149;DHT22;5115;50.920;6.376;2024-03-06T01:05:15;7.50;99.90
10149;DHT22;5115;50.920;6.376;2024-03-06T01:07:41;7.50;99.90
10149;DHT22;5115;50.920;6.376;2024-03-06T01:10:08;7.50;99.90
10149;DHT22;5115;50.920;6.376;2024-03-06T01:12:34;7.50;99.90
10149;DHT22;5115;50.920;6.376;2024-03-06T01:15:00;7.50;99.90
10149;DHT22;5115;50.920;6.376;2024-03-06T01:17:25;7.40;99.90
10149;DHT22;5115;50.920;6.376;2024-03-06T01:19:51;7.30;99.90
10149;DHT22;5115;50.920;6.376;2024-03-06T01:22:17;7.30;99.90
10149;DHT22;5115;50.920;6.376;2024-03-06T01:24:43;7.20;99.90
10149;DHT22;5115;50.920;6.376;2024-03-06T01:27:09;7.10;99.90
10149;DHT22;5115;50.920;6.376;2024-03-06T01:29:34;7.00;99.90
10149;DHT22;5115;50.920;6.376;2024-03-06T01:32:00;6.90;99.90
10149;DHT22;5115;50.920;6.376;2024-03-06T01:34:26;6.90;99.90
10149;DHT22;5115;50.920;6.376;2024-03-06T01:36:52;6.80;99.90
10149;DHT22;5115;50.920;6.376;2024-03-06T01:39:18;6.70;99.90
10149;DHT22;5115;50.920;6.376;2024-03-06T01:41:47;6.60;99.90
10149;DHT22;5115;50.920;6.376;2024-03-06T01:44:14;6.50;99.90
10149;DHT22;5115;50.920;6.376;2024-03-06T01:46:40;6.40;99.90
10149;DHT22;5115;50.920;6.376;2024-03-06T01:49:06;6.30;99.90
10149;DHT22;5115;50.920;6.376;2024-03-06T01:51:32;6.30;99.90
10149;DHT22;5115;50.920;6.376;2024-03-06T01:53:58;6.30;99.90
10149;DHT22;5115;50.920;6.376;2024-03-06T01:56:25;6.30;99.90
10149;DHT22;5115;50.920;6.376;2024-03-06T01:58:52;6.30;99.90
10149;DHT22;5115;50.920;6.376;2024-03-06T02:01:19;6.30;99.90
10149;DHT22;5115;50.920;6.376;2024-03-06T02:03:45;6.30;99.90
10149;DHT22;5115;50.920;6.376;2024-03-06T02:06:12;6.30;99.90
10149;DHT22;5115;50.920;6.376;2024-03-06T02:08:38;6.30;99.90
10149;DHT22;5115;50.920;6.376;2024-03-06T02:11:04;6.30;99.90
10149;DHT22;5115;50.920;6.376;2024-03-06T02:13:30;6.30;99.90
10149;DHT22;5115;50.920;6.376;2024-03-06T02:15:56;6.30;99.90
10149;DHT22;5115;50.920;6.376;2024-03-06T02:18:21;6.30;99.90
10149;DHT22;5115;50.920;6.376;2024-03-06T02:20:47;6.30;99.90
10149;DHT22;5115;50.920;6.376;2024-03-06T02:23:15;6.30;99.90
10149;DHT22;5115;50.920;6.376;2024-03-06T02:25:43;6.30;99.90
10149;DHT22;5115;50.920;6.376;2024-03-06T02:28:08;6.30;99.90
10149;DHT22;5115;50.920;6.376;2024-03-06T02:30:34;6.30;99.90
10149;DHT22;5115;50.920;6.376;2024-03-06T02:33:02;6.30;99.90
10149;DHT22;5115;50.920;6.376;2024-03-06T02:35:29;6.20;99.90
10149;DHT22;5115;50.920;6.376;2024-03-06T02:37:55;6.20;99.90
10149;DHT22;5115;50.920;6.376;2024-03-06T02:40:22;6.20;99.90
10149;DHT22;5115;50.920;6.376;2024-03-06T02:42:48;6.20;99.90
10149;DHT22;5115;50.920;6.376;2024-03-06T02:45:13;6.00;99.90
10149;DHT22;5115;50.920;6.376;2024-03-06T02:47:39;5.90;99.90
10149;DHT22;5115;50.920;6.376;2024-03-06T02:50:05;6.00;99.90
10149;DHT22;5115;50.920;6.376;2024-03-06T02:52:31;6.00;99.90
10149;DHT22;5115;50.920;6.376;2024-03-06T02:54:56;6.00;99.90
10149;DHT22;5115;50.920;6.376;2024-03-06T02:57:22;6.00;99.90
10149;DHT22;5115;50.920;6.376;2024-03-06T02:59:49;5.90;99.90
10149;DHT22;5115;50.920;6.376;2024-03-06T03:02:15;5.80;99.90
10149;DHT22;5115;50.920;6.376;2024-03-06T03:04:40;5.70;99.90
10149;DHT22;5115;50.920;6.376;2024-03-06T03:07:06;5.70;99.90
10149;DHT22;5115;50.920;6.376;2024-03-06T03:09:31;5.70;99.90
10149;DHT22;5115;50.920;6.376;2024-03-06T03:11:57;5.70;99.90
10149;DHT22;5115;50.920;6.376;2024-03-06T03:14:23;5.80;99.90
10149;DHT22;5115;50.920;6.376;2024-03-06T03:16:49;5.70;99.90
10149;DHT22;5115;50.920;6.376;2024-03-06T03:19:15;5.70;99.90
10149;DHT22;5115;50.920;6.376;2024-03-06T03:21:44;5.70;99.90
10149;DHT22;5115;50.920;6.376;2024-03-06T03:24:10;5.60;99.90
10149;DHT22;5115;50.920;6.376;2024-03-06T03:26:35;5.50;99.90
10149;DHT22;5115;50.920;6.376;2024-03-06T03:29:02;5.40;99.90
10149;DHT22;5115;50.920;6.376;2024-03-06T03:31:28;5.40;99.90
10149;DHT22;5115;50.920;6.376;2024-03-06T03:33:54;5.40;99.90
10149;DHT22;5115;50.920;6.376;2024-03-06T03:36:19;5.40;99.90
10149;DHT22;5115;50.920;6.376;2024-03-06T03:38:45;5.40;99.90
10149;DHT22;5115;50.920;6.376;2024-03-06T03:41:11;5.40;99.90
10149;DHT22;5115;50.920;6.376;2024-03-06T03:43:42;5.40;99.90
10149;DHT22;5115;50.920;6.376;2024-03-06T03:46:08;5.40;99.90
10149;DHT22;5115;50.920;6.376;2024-03-06T03:48:34;5.20;99.90
10149;DHT22;5115;50.920;6.376;2024-03-06T03:51:02;5.10;99.90
10149;DHT22;5115;50.920;6.376;2024-03-06T03:53:30;5.10;99.90
10149;DHT22;5115;50.920;6.376;2024-03-06T03:55:55;5.10;99.90
10149;DHT22;5115;50.920;6.376;2024-03-06T03:58:21;5.10;99.90
10149;DHT22;5115;50.920;6.376;2024-03-06T04:00:46;5.10;99.90
10149;DHT22;5115;50.920;6.376;2024-03-06T04:03:12;5.00;99.90
10149;DHT22;5115;50.920;6.376;2024-03-06T04:05:38;4.80;99.90
10149;DHT22;5115;50.920;6.376;2024-03-06T04:08:03;4.80;99.90
10149;DHT22;5115;50.920;6.376;2024-03-06T04:10:31;4.80;99.90
10149;DHT22;5115;50.920;6.376;2024-03-06T04:12:58;4.70;99.90
10149;DHT22;5115;50.920;6.376;2024-03-06T04:15:25;4.70;99.90
10149;DHT22;5115;50.920;6.376;2024-03-06T04:17:50;4.60;99.90
10149;DHT22;5115;50.920;6.376;2024-03-06T04:20:16;4.50;99.90
10149;DHT22;5115;50.920;6.376;2024-03-06T04:22:41;4.50;99.90
10149;DHT22;5115;50.920;6.376;2024-03-06T04:25:07;4.50;99.90
10149;DHT22;5115;50.920;6.376;2024-03-06T04:27:33;4.40;99.90
10149;DHT22;5115;50.920;6.376;2024-03-06T04:29:59;4.50;99.90
10149;DHT22;5115;50.920;6.376;2024-03-06T04:32:24;4.60;99.90
10149;DHT22;5115;50.920;6.376;2024-03-06T04:34:50;4.60;99.90
10149;DHT22;5115;50.920;6.376;2024-03-06T04:37:15;4.70;99.90
10149;DHT22;5115;50.920;6.376;2024-03-06T04:39:41;4.80;99.90
10149;DHT22;5115;50.920;6.376;2024-03-06T04:42:06;4.90;99.90
10149;DHT22;5115;50.920;6.376;2024-03-06T04:44:36;4.80;99.90
10149;DHT22;5115;50.920;6.376;2024-03-06T04:47:01;4.90;99.90
10149;DHT22;5115;50.920;6.376;2024-03-06T04:49:27;4.90;99.90
10149;DHT22;5115;50.920;6.376;2024-03-06T04:51:53;4.80;99.90
10149;DHT22;5115;50.920;6.376;2024-03-06T04:54:18;4.80;99.90
10149;DHT22;5115;50.920;6.376;2024-03-06T04:56:44;4.80;99.90
10149;DHT22;5115;50.920;6.376;2024-03-06T04:59:09;4.90;99.90
10149;DHT22;5115;50.920;6.376;2024-03-06T05:01:35;4.90;99.90
10149;DHT22;5115;50.920;6.376;2024-03-06T05:04:00;4.90;99.90
10149;DHT22;5115;50.920;6.376;2024-03-06T05:06:26;4.90;99.90
10149;DHT22;5115;50.920;6.376;2024-03-06T05:08:51;4.90;99.90
10149;DHT22;5115;50.920;6.376;2024-03-06T05:11:17;4.90;99.90
10149;DHT22;5115;50.920;6.376;2024-03-06T05:13:43;4.90;99.90
10149;DHT22;5115;50.920;6.376;2024-03-06T05:16:08;4.90;99.90
10149;DHT22;5115;50.920;6.376;2024-03-06T05:18:34;4.90;99.90
10149;DHT22;5115;50.920;6.376;2024-03-06T05:21:00;4.90;99.90
10149;DHT22;5115;50.920;6.376;2024-03-06T05:23:26;4.90;99.90
10149;DHT22;5115;50.920;6.376;2024-03-06T05:25:52;4.90;99.90
10149;DHT22;5115;50.920;6.376;2024-03-06T05:28:17;4.90;99.90
10149;DHT22;5115;50.920;6.376;2024-03-06T05:30:43;4.90;99.90
10149;DHT22;5115;50.920;6.376;2024-03-06T05:33:08;4.80;99.90
10149;DHT22;5115;50.920;6.376;2024-03-06T05:35:34;4.90;99.90
10149;DHT22;5115;50.920;6.376;2024-03-06T05:37:59;4.90;99.90
10149;DHT22;5115;50.920;6.376;2024-03-06T05:40:25;4.90;99.90
10149;DHT22;5115;50.920;6.376;2024-03-06T05:42:51;4.60;99.90
10149;DHT22;5115;50.920;6.376;2024-03-06T05:45:16;4.20;99.90
10149;DHT22;5115;50.920;6.376;2024-03-06T05:47:42;4.20;99.90
10149;DHT22;5115;50.920;6.376;2024-03-06T05:50:08;4.10;99.90
10149;DHT22;5115;50.920;6.376;2024-03-06T05:52:36;4.20;99.90
10149;DHT22;5115;50.920;6.376;2024-03-06T05:55:02;4.40;99.90
10149;DHT22;5115;50.920;6.376;2024-03-06T05:57:28;4.40;99.90
10149;DHT22;5115;50.920;6.376;2024-03-06T05:59:53;4.50;99.90
10149;DHT22;5115;50.920;6.376;2024-03-06T06:02:19;4.50;99.90
10149;DHT22;5115;50.920;6.376;2024-03-06T06:04:46;4.40;99.90
10149;DHT22;5115;50.920;6.376;2024-03-06T06:07:11;4.40;99.90
10149;DHT22;5115;50.920;6.376;2024-03-06T06:09:37;4.40;99.90
10149;DHT22;5115;50.920;6.376;2024-03-06T06:12:02;4.50;99.90
10149;DHT22;5115;50.920;6.376;2024-03-06T06:14:28;4.50;99.90
10149;DHT22;5115;50.920;6.376;2024-03-06T06:16:55;4.60;99.90
10149;DHT22;5115;50.920;6.376;2024-03-06T06:19:21;4.60;99.90
10149;DHT22;5115;50.920;6.376;2024-03-06T06:21:46;4.60;99.90
10149;DHT22;5115;50.920;6.376;2024-03-06T06:24:13;4.70;99.90
10149;DHT22;5115;50.920;6.376;2024-03-06T06:26:39;4.70;99.90
10149;DHT22;5115;50.920;6.376;2024-03-06T06:29:04;4.80;99.90
10149;DHT22;5115;50.920;6.376;2024-03-06T06:31:30;4.80;99.90
10149;DHT22;5115;50.920;6.376;2024-03-06T06:33:56;4.60;99.90
10149;DHT22;5115;50.920;6.376;2024-03-06T06:36:22;4.70;99.90
10149;DHT22;5115;50.920;6.376;2024-03-06T06:38:48;4.80;99.90
10149;DHT22;5115;50.920;6.376;2024-03-06T06:41:14;4.80;99.90
10149;DHT22;5115;50.920;6.376;2024-03-06T06:43:41;4.90;99.90
10149;DHT22;5115;50.920;6.376;2024-03-06T06:46:07;5.00;99.90
10149;DHT22;5115;50.920;6.376;2024-03-06T06:48:32;4.90;99.90
10149;DHT22;5115;50.920;6.376;2024-03-06T06:51:02;5.10;99.90
10149;DHT22;5115;50.920;6.376;2024-03-06T06:53:29;5.90;99.90
10149;DHT22;5115;50.920;6.376;2024-03-06T06:55:55;5.30;99.90
10149;DHT22;5115;50.920;6.376;2024-03-06T06:58:20;5.40;99.90
10149;DHT22;5115;50.920;6.376;2024-03-06T07:00:46;5.50;99.90
10149;DHT22;5115;50.920;6.376;2024-03-06T07:03:12;5.60;99.90
10149;DHT22;5115;50.920;6.376;2024-03-06T07:05:37;5.60;99.90
10149;DHT22;5115;50.920;6.376;2024-03-06T07:08:03;5.60;99.90
10149;DHT22;5115;50.920;6.376;2024-03-06T07:10:29;5.60;99.90
10149;DHT22;5115;50.920;6.376;2024-03-06T07:12:54;5.50;99.90
10149;DHT22;5115;50.920;6.376;2024-03-06T07:15:20;5.50;99.90
10149;DHT22;5115;50.920;6.376;2024-03-06T07:17:47;5.60;99.90
10149;DHT22;5115;50.920;6.376;2024-03-06T07:20:12;5.80;99.90
10149;DHT22;5115;50.920;6.376;2024-03-06T07:22:39;6.10;99.90
10149;DHT22;5115;50.920;6.376;2024-03-06T07:25:05;6.40;99.90
10149;DHT22;5115;50.920;6.376;2024-03-06T07:27:31;6.80;99.90
10149;DHT22;5115;50.920;6.376;2024-03-06T07:29:57;7.10;99.90
10149;DHT22;5115;50.920;6.376;2024-03-06T07:32:22;7.50;99.90
10149;DHT22;5115;50.920;6.376;2024-03-06T07:34:48;7.90;99.90
10149;DHT22;5115;50.920;6.376;2024-03-06T07:37:13;8.00;99.90
10149;DHT22;5115;50.920;6.376;2024-03-06T07:39:40;8.10;99.90
10149;DHT22;5115;50.920;6.376;2024-03-06T07:42:06;8.30;99.90
10149;DHT22;5115;50.920;6.376;2024-03-06T07:44:31;8.50;99.90
10149;DHT22;5115;50.920;6.376;2024-03-06T07:46:57;8.60;99.90
10149;DHT22;5115;50.920;6.376;2024-03-06T07:49:22;8.90;99.90
10149;DHT22;5115;50.920;6.376;2024-03-06T07:51:48;9.40;99.90
10149;DHT22;5115;50.920;6.376;2024-03-06T07:54:14;10.00;99.90
10149;DHT22;5115;50.920;6.376;2024-03-06T07:56:39;10.80;99.90
10149;DHT22;5115;50.920;6.376;2024-03-06T07:59:05;12.30;99.90
10149;DHT22;5115;50.920;6.376;2024-03-06T08:01:30;14.00;99.90
10149;DHT22;5115;50.920;6.376;2024-03-06T08:03:57;15.20;99.90
10149;DHT22;5115;50.920;6.376;2024-03-06T08:06:23;16.00;99.90
10149;DHT22;5115;50.920;6.376;2024-03-06T08:08:48;16.90;99.90
10149;DHT22;5115;50.920;6.376;2024-03-06T08:11:14;17.20;99.90
10149;DHT22;5115;50.920;6.376;2024-03-06T08:13:40;17.40;99.90
10149;DHT22;5115;50.920;6.376;2024-03-06T08:16:07;17.80;99.90
10149;DHT22;5115;50.920;6.376;2024-03-06T08:18:33;18.40;99.90
10149;DHT22;5115;50.920;6.376;2024-03-06T08:21:00;18.70;99.90
10149;DHT22;5115;50.920;6.376;2024-03-06T08:23:25;19.60;99.90
10149;DHT22;5115;50.920;6.376;2024-03-06T08:25:51;20.00;99.90
10149;DHT22;5115;50.920;6.376;2024-03-06T08:28:18;19.80;99.90
10149;DHT22;5115;50.920;6.376;2024-03-06T08:30:43;19.30;99.90
10149;DHT22;5115;50.920;6.376;2024-03-06T08:33:10;19.10;99.90
10149;DHT22;5115;50.920;6.376;2024-03-06T08:35:35;19.20;99.90
10149;DHT22;5115;50.920;6.376;2024-03-06T08:38:01;19.20;99.90
10149;DHT22;5115;50.920;6.376;2024-03-06T08:40:26;19.20;99.90
10149;DHT22;5115;50.920;6.376;2024-03-06T08:42:53;19.30;99.90
10149;DHT22;5115;50.920;6.376;2024-03-06T08:45:19;20.50;99.90
10149;DHT22;5115;50.920;6.376;2024-03-06T08:47:45;20.10;99.90
10149;DHT22;5115;50.920;6.376;2024-03-06T08:50:11;20.20;99.90
10149;DHT22;5115;50.920;6.376;2024-03-06T08:52:38;21.20;99.90
10149;DHT22;5115;50.920;6.376;2024-03-06T08:55:04;20.70;99.90
10149;DHT22;5115;50.920;6.376;2024-03-06T08:57:31;20.90;99.90
10149;DHT22;5115;50.920;6.376;2024-03-06T08:59:58;21.80;99.90
10149;DHT22;5115;50.920;6.376;2024-03-06T09:02:23;22.50;99.90
10149;DHT22;5115;50.920;6.376;2024-03-06T09:04:49;23.10;99.90
10149;DHT22;5115;50.920;6.376;2024-03-06T09:07:17;23.40;98.60
10149;DHT22;5115;50.920;6.376;2024-03-06T09:09:43;23.40;98.20
10149;DHT22;5115;50.920;6.376;2024-03-06T09:12:10;23.10;97.90
10149;DHT22;5115;50.920;6.376;2024-03-06T09:14:37;22.90;98.60
10149;DHT22;5115;50.920;6.376;2024-03-06T09:17:03;23.00;98.60
10149;DHT22;5115;50.920;6.376;2024-03-06T09:19:28;23.60;98.00
10149;DHT22;5115;50.920;6.376;2024-03-06T09:21:54;23.60;97.80
10149;DHT22;5115;50.920;6.376;2024-03-06T09:24:21;23.30;97.10
10149;DHT22;5115;50.920;6.376;2024-03-06T09:26:48;23.40;98.20
10149;DHT22;5115;50.920;6.376;2024-03-06T09:29:14;23.90;97.50
10149;DHT22;5115;50.920;6.376;2024-03-06T09:31:40;24.20;97.40
10149;DHT22;5115;50.920;6.376;2024-03-06T09:34:05;24.50;97.40
10149;DHT22;5115;50.920;6.376;2024-03-06T09:36:31;24.60;96.50
10149;DHT22;5115;50.920;6.376;2024-03-06T09:39:01;24.30;96.00
10149;DHT22;5115;50.920;6.376;2024-03-06T09:41:30;24.50;96.30
10149;DHT22;5115;50.920;6.376;2024-03-06T09:43:55;24.10;95.80
10149;DHT22;5115;50.920;6.376;2024-03-06T09:46:21;23.10;96.30
10149;DHT22;5115;50.920;6.376;2024-03-06T09:48:47;22.20;97.70
10149;DHT22;5115;50.920;6.376;2024-03-06T09:51:14;21.10;97.90
10149;DHT22;5115;50.920;6.376;2024-03-06T09:53:41;19.60;99.50
10149;DHT22;5115;50.920;6.376;2024-03-06T09:56:08;18.50;99.90
10149;DHT22;5115;50.920;6.376;2024-03-06T09:58:35;17.60;99.90
10149;DHT22;5115;50.920;6.376;2024-03-06T10:01:01;16.80;99.90
10149;DHT22;5115;50.920;6.376;2024-03-06T10:03:32;16.40;99.90
10149;DHT22;5115;50.920;6.376;2024-03-06T10:05:58;16.20;99.90
10149;DHT22;5115;50.920;6.376;2024-03-06T10:08:23;16.10;99.90
10149;DHT22;5115;50.920;6.376;2024-03-06T10:10:52;16.50;99.90
10149;DHT22;5115;50.920;6.376;2024-03-06T10:13:17;17.30;99.90
10149;DHT22;5115;50.920;6.376;2024-03-06T10:16:00;17.80;99.90
10149;DHT22;5115;50.920;6.376;2024-03-06T10:18:27;17.90;99.90
10149;DHT22;5115;50.920;6.376;2024-03-06T10:20:53;17.60;99.90
10149;DHT22;5115;50.920;6.376;2024-03-06T10:23:19;17.00;99.90
10149;DHT22;5115;50.920;6.376;2024-03-06T10:25:46;16.60;99.90
10149;DHT22;5115;50.920;6.376;2024-03-06T10:28:12;15.90;99.90
10149;DHT22;5115;50.920;6.376;2024-03-06T10:30:39;15.50;99.90
10149;DHT22;5115;50.920;6.376;2024-03-06T10:33:09;15.50;99.90
10149;DHT22;5115;50.920;6.376;2024-03-06T10:35:35;16.00;99.90
10149;DHT22;5115;50.920;6.376;2024-03-06T10:38:05;16.80;99.90
10149;DHT22;5115;50.920;6.376;2024-03-06T10:40:38;16.90;99.90
10149;DHT22;5115;50.920;6.376;2024-03-06T10:43:05;16.70;99.90
10149;DHT22;5115;50.920;6.376;2024-03-06T10:48:02;15.90;99.90
10149;DHT22;5115;50.920;6.376;2024-03-06T10:50:28;15.30;99.90
10149;DHT22;5115;50.920;6.376;2024-03-06T10:52:55;15.00;99.90
10149;DHT22;5115;50.920;6.376;2024-03-06T10:55:21;14.50;99.90
10149;DHT22;5115;50.920;6.376;2024-03-06T10:57:49;14.00;99.90
10149;DHT22;5115;50.920;6.376;2024-03-06T11:00:17;13.70;99.90
10149;DHT22;5115;50.920;6.376;2024-03-06T11:02:47;13.70;99.90
10149;DHT22;5115;50.920;6.376;2024-03-06T11:05:14;13.80;99.90
10149;DHT22;5115;50.920;6.376;2024-03-06T11:07:40;13.80;99.90
10149;DHT22;5115;50.920;6.376;2024-03-06T11:10:06;13.80;99.90
10149;DHT22;5115;50.920;6.376;2024-03-06T11:12:37;13.90;99.90
10149;DHT22;5115;50.920;6.376;2024-03-06T11:15:16;13.90;99.90
10149;DHT22;5115;50.920;6.376;2024-03-06T11:17:42;14.10;99.90
10149;DHT22;5115;50.920;6.376;2024-03-06T11:20:12;14.70;99.90
10149;DHT22;5115;50.920;6.376;2024-03-06T11:30:47;16.70;99.90
10149;DHT22;5115;50.920;6.376;2024-03-06T11:33:14;16.20;99.90
10149;DHT22;5115;50.920;6.376;2024-03-06T11:35:42;15.70;99.90
10149;DHT22;5115;50.920;6.376;2024-03-06T11:38:10;15.50;99.90
10149;DHT22;5115;50.920;6.376;2024-03-06T11:40:48;15.50;99.90
10149;DHT22;5115;50.920;6.376;2024-03-06T11:43:26;15.50;99.90
10149;DHT22;5115;50.920;6.376;2024-03-06T11:45:53;15.60;99.90
10149;DHT22;5115;50.920;6.376;2024-03-06T11:48:18;15.50;99.90
10149;DHT22;5115;50.920;6.376;2024-03-06T11:50:47;15.60;99.90
10149;DHT22;5115;50.920;6.376;2024-03-06T11:53:16;15.80;99.90
10149;DHT22;5115;50.920;6.376;2024-03-06T11:55:42;16.00;99.90
10149;DHT22;5115;50.920;6.376;2024-03-06T11:58:08;16.00;99.90
10149;DHT22;5115;50.920;6.376;2024-03-06T12:00:37;15.80;99.90
10149;DHT22;5115;50.920;6.376;2024-03-06T12:03:03;16.00;99.90
10149;DHT22;5115;50.920;6.376;2024-03-06T12:05:31;16.00;99.90
10149;DHT22;5115;50.920;6.376;2024-03-06T12:07:56;15.90;99.90
10149;DHT22;5115;50.920;6.376;2024-03-06T12:10:22;15.50;99.90
10149;DHT22;5115;50.920;6.376;2024-03-06T12:12:48;15.40;99.90
10149;DHT22;5115;50.920;6.376;2024-03-06T12:15:14;15.50;99.90
10149;DHT22;5115;50.920;6.376;2024-03-06T12:17:49;15.60;99.90
10149;DHT22;5115;50.920;6.376;2024-03-06T12:20:17;15.90;99.90
10149;DHT22;5115;50.920;6.376;2024-03-06T12:22:50;15.70;99.90
10149;DHT22;5115;50.920;6.376;2024-03-06T12:25:19;15.80;99.90
10149;DHT22;5115;50.920;6.376;2024-03-06T12:27:49;15.80;99.90
10149;DHT22;5115;50.920;6.376;2024-03-06T12:30:22;16.30;99.90
10149;DHT22;5115;50.920;6.376;2024-03-06T12:33:01;15.50;99.90
10149;DHT22;5115;50.920;6.376;2024-03-06T12:35:30;15.30;99.90
10149;DHT22;5115;50.920;6.376;2024-03-06T12:37:57;15.20;99.90
10149;DHT22;5115;50.920;6.376;2024-03-06T12:40:22;15.40;99.90
10149;DHT22;5115;50.920;6.376;2024-03-06T12:42:48;15.40;99.90
10149;DHT22;5115;50.920;6.376;2024-03-06T12:45:16;15.40;99.90
10149;DHT22;5115;50.920;6.376;2024-03-06T12:47:48;15.30;99.90
10149;DHT22;5115;50.920;6.376;2024-03-06T12:50:14;15.10;99.90
10149;DHT22;5115;50.920;6.376;2024-03-06T12:52:41;15.10;99.90
10149;DHT22;5115;50.920;6.376;2024-03-06T12:55:07;15.20;99.90
10149;DHT22;5115;50.920;6.376;2024-03-06T12:57:33;15.20;99.90
10149;DHT22;5115;50.920;6.376;2024-03-06T12:59:59;14.80;99.90
10149;DHT22;5115;50.920;6.376;2024-03-06T13:02:25;14.80;99.90
10149;DHT22;5115;50.920;6.376;2024-03-06T13:04:50;14.90;99.90
10149;DHT22;5115;50.920;6.376;2024-03-06T13:07:16;14.80;99.90
10149;DHT22;5115;50.920;6.376;2024-03-06T13:09:41;14.70;99.90
10149;DHT22;5115;50.920;6.376;2024-03-06T13:12:07;14.60;99.90
10149;DHT22;5115;50.920;6.376;2024-03-06T13:14:33;14.40;99.90
10149;DHT22;5115;50.920;6.376;2024-03-06T13:16:59;14.50;99.90
10149;DHT22;5115;50.920;6.376;2024-03-06T13:19:25;14.60;99.90
10149;DHT22;5115;50.920;6.376;2024-03-06T13:21:50;14.30;99.90
10149;DHT22;5115;50.920;6.376;2024-03-06T13:24:18;14.40;99.90
10149;DHT22;5115;50.920;6.376;2024-03-06T13:26:45;14.40;99.90
10149;DHT22;5115;50.920;6.376;2024-03-06T13:29:10;14.20;99.90
10149;DHT22;5115;50.920;6.376;2024-03-06T13:31:36;14.30;99.90
10149;DHT22;5115;50.920;6.376;2024-03-06T13:34:03;14.00;99.90
10149;DHT22;5115;50.920;6.376;2024-03-06T13:36:29;13.90;99.90
10149;DHT22;5115;50.920;6.376;2024-03-06T13:38:55;13.80;99.90
10149;DHT22;5115;50.920;6.376;2024-03-06T13:41:21;13.80;99.90
10149;DHT22;5115;50.920;6.376;2024-03-06T13:43:46;13.90;99.90
10149;DHT22;5115;50.920;6.376;2024-03-06T13:46:12;13.60;99.90
10149;DHT22;5115;50.920;6.376;2024-03-06T13:48:38;14.10;99.90
10149;DHT22;5115;50.920;6.376;2024-03-06T13:51:04;14.20;99.90
10149;DHT22;5115;50.920;6.376;2024-03-06T13:53:30;14.10;99.90
10149;DHT22;5115;50.920;6.376;2024-03-06T13:55:56;14.00;99.90
10149;DHT22;5115;50.920;6.376;2024-03-06T13:58:22;14.10;99.90
10149;DHT22;5115;50.920;6.376;2024-03-06T14:00:47;14.20;99.90
10149;DHT22;5115;50.920;6.376;2024-03-06T14:03:13;14.30;99.90
10149;DHT22;5115;50.920;6.376;2024-03-06T14:05:39;14.20;99.90
10149;DHT22;5115;50.920;6.376;2024-03-06T14:08:05;14.10;99.90
10149;DHT22;5115;50.920;6.376;2024-03-06T14:10:31;13.90;99.90
10149;DHT22;5115;50.920;6.376;2024-03-06T14:13:00;13.80;99.90
10149;DHT22;5115;50.920;6.376;2024-03-06T14:15:26;13.80;99.90
10149;DHT22;5115;50.920;6.376;2024-03-06T14:17:52;13.80;99.90
10149;DHT22;5115;50.920;6.376;2024-03-06T14:20:22;13.90;99.90
10149;DHT22;5115;50.920;6.376;2024-03-06T14:22:48;13.80;99.90
10149;DHT22;5115;50.920;6.376;2024-03-06T14:25:15;13.90;99.90
10149;DHT22;5115;50.920;6.376;2024-03-06T14:27:41;14.10;99.90
10149;DHT22;5115;50.920;6.376;2024-03-06T14:30:07;14.10;99.90
10149;DHT22;5115;50.920;6.376;2024-03-06T14:32:33;14.10;99.90
10149;DHT22;5115;50.920;6.376;2024-03-06T14:34:59;13.90;99.90
10149;DHT22;5115;50.920;6.376;2024-03-06T14:37:25;13.80;99.90
10149;DHT22;5115;50.920;6.376;2024-03-06T14:39:50;13.80;99.90
10149;DHT22;5115;50.920;6.376;2024-03-06T14:42:19;13.70;99.90
10149;DHT22;5115;50.920;6.376;2024-03-06T14:44:45;13.60;99.90
10149;DHT22;5115;50.920;6.376;2024-03-06T14:47:12;13.80;99.90
10149;DHT22;5115;50.920;6.376;2024-03-06T14:50:06;13.80;99.90
10149;DHT22;5115;50.920;6.376;2024-03-06T14:53:11;13.70;99.90
10149;DHT22;5115;50.920;6.376;2024-03-06T14:55:47;13.70;99.90
10149;DHT22;5115;50.920;6.376;2024-03-06T14:58:13;13.70;99.90
10149;DHT22;5115;50.920;6.376;2024-03-06T15:00:38;13.50;99.90
10149;DHT22;5115;50.920;6.376;2024-03-06T15:03:04;13.50;99.90
10149;DHT22;5115;50.920;6.376;2024-03-06T15:05:30;13.30;99.90
10149;DHT22;5115;50.920;6.376;2024-03-06T15:07:57;13.30;99.90
10149;DHT22;5115;50.920;6.376;2024-03-06T15:10:23;13.30;99.90
10149;DHT22;5115;50.920;6.376;2024-03-06T15:12:49;13.40;99.90
10149;DHT22;5115;50.920;6.376;2024-03-06T15:15:15;13.50;99.90
10149;DHT22;5115;50.920;6.376;2024-03-06T15:17:40;13.70;99.90
10149;DHT22;5115;50.920;6.376;2024-03-06T15:20:07;13.90;99.90
10149;DHT22;5115;50.920;6.376;2024-03-06T15:22:36;13.70;99.90
10149;DHT22;5115;50.920;6.376;2024-03-06T15:25:07;13.60;99.90
10149;DHT22;5115;50.920;6.376;2024-03-06T15:27:34;13.50;99.90
10149;DHT22;5115;50.920;6.376;2024-03-06T15:30:10;13.30;99.90
10149;DHT22;5115;50.920;6.376;2024-03-06T15:32:37;13.30;99.90
10149;DHT22;5115;50.920;6.376;2024-03-06T15:35:04;13.20;99.90
10149;DHT22;5115;50.920;6.376;2024-03-06T15:37:30;13.10;99.90
10149;DHT22;5115;50.920;6.376;2024-03-06T15:39:56;13.20;99.90
10149;DHT22;5115;50.920;6.376;2024-03-06T15:42:22;13.10;99.90
10149;DHT22;5115;50.920;6.376;2024-03-06T15:44:49;12.90;99.90
10149;DHT22;5115;50.920;6.376;2024-03-06T15:47:16;13.00;99.90
10149;DHT22;5115;50.920;6.376;2024-03-06T15:49:43;12.80;99.90
10149;DHT22;5115;50.920;6.376;2024-03-06T15:52:12;12.80;99.90
10149;DHT22;5115;50.920;6.376;2024-03-06T15:54:39;12.70;99.90
10149;DHT22;5115;50.920;6.376;2024-03-06T15:57:05;12.70;99.90
10149;DHT22;5115;50.920;6.376;2024-03-06T15:59:34;12.70;99.90
10149;DHT22;5115;50.920;6.376;2024-03-06T16:02:00;12.50;99.90